Time,TemperatureF,DewpointF,PressureIn,WindDirection,WindDirectionDegrees,WindSpeedMPH,WindSpeedGustMPH,Humidity,HourlyPrecipIn,Conditions,Clouds,dailyrainin,SoftwareType,DateUTC
2013-11-13 00:00:00,49.0,46.0,-100.00,SSW,199,1.0,-999.0,89,0.00,,,-99.99,,2013-11-13 08:00:00,
2013-11-13 00:42:00,49.0,46.0,-100.00,SSW,199,1.0,-999.0,89,0.00,,,-99.99,,2013-11-13 08:42:00,
2013-11-13 00:52:00,49.0,46.0,-100.00,SSW,199,1.0,-999.0,89,0.00,,,-99.99,,2013-11-13 08:52:00,
2013-11-13 01:00:00,49.0,47.0,-100.00,South,188,1.0,-999.0,91,0.00,,,-99.99,,2013-11-13 09:00:00,
2013-11-13 01:43:00,49.0,47.0,-100.00,South,188,1.0,-999.0,91,0.00,,,-99.99,,2013-11-13 09:43:00,
2013-11-13 01:52:00,49.0,47.0,-100.00,South,188,1.0,-999.0,91,0.00,,,-99.99,,2013-11-13 09:52:00,
2013-11-13 02:00:00,48.0,46.0,-100.00,South,172,3.0,-999.0,92,0.00,,,-99.99,,2013-11-13 10:00:00,
2013-11-13 02:42:00,48.0,46.0,-100.00,South,172,3.0,-999.0,92,0.00,,,-99.99,,2013-11-13 10:42:00,
2013-11-13 02:52:00,48.0,46.0,-100.00,South,172,3.0,-999.0,92,0.00,,,-99.99,,2013-11-13 10:52:00,
2013-11-13 03:00:00,47.0,45.0,-100.00,South,187,0.0,-999.0,91,0.00,,,-99.99,,2013-11-13 11:00:00,
2013-11-13 03:42:00,47.0,45.0,-100.00,South,187,0.0,-999.0,91,0.00,,,-99.99,,2013-11-13 11:42:00,
2013-11-13 03:52:00,47.0,45.0,-100.00,South,187,0.0,-999.0,91,0.00,,,-99.99,,2013-11-13 11:52:00,
2013-11-13 04:00:00,45.0,43.0,-100.00,SE,146,2.0,-999.0,93,0.00,,,-99.99,,2013-11-13 12:00:00,
2013-11-13 04:42:00,45.0,43.0,-100.00,SE,146,2.0,-999.0,93,0.00,,,-99.99,,2013-11-13 12:42:00,
2013-11-13 04:52:00,45.0,43.0,-100.00,SE,146,2.0,-999.0,93,0.00,,,-99.99,,2013-11-13 12:52:00,
2013-11-13 05:00:00,44.0,42.0,-100.00,South,176,5.0,-999.0,94,0.00,,,-99.99,,2013-11-13 13:00:00,
2013-11-13 05:42:00,44.0,42.0,-100.00,South,176,5.0,-999.0,94,0.00,,,-99.99,,2013-11-13 13:42:00,
2013-11-13 05:52:00,44.0,42.0,-100.00,South,176,5.0,-999.0,94,0.00,,,-99.99,,2013-11-13 13:52:00,
2013-11-13 06:00:00,44.0,42.0,-100.00,SSE,167,3.0,-999.0,94,0.00,,,-99.99,,2013-11-13 14:00:00,
2013-11-13 06:42:00,44.0,42.0,-100.00,SSE,167,3.0,-999.0,94,0.00,,,-99.99,,2013-11-13 14:42:00,
2013-11-13 06:53:00,44.0,42.0,-100.00,SSE,167,3.0,-999.0,94,0.00,,,-99.99,,2013-11-13 14:53:00,
2013-11-13 07:00:00,43.0,42.0,-100.00,South,170,2.0,-999.0,94,0.00,,,-99.99,,2013-11-13 15:00:00,
2013-11-13 07:43:00,43.0,42.0,-100.00,South,170,2.0,-999.0,94,0.00,,,-99.99,,2013-11-13 15:43:00,
2013-11-13 07:53:00,43.0,42.0,-100.00,South,170,2.0,-999.0,94,0.00,,,-99.99,,2013-11-13 15:53:00,
2013-11-13 08:00:00,43.0,42.0,-100.00,South,169,3.0,-999.0,94,0.00,,,-99.99,,2013-11-13 16:00:00,
2013-11-13 08:43:00,43.0,42.0,-100.00,South,169,3.0,-999.0,94,0.00,,,-99.99,,2013-11-13 16:43:00,
2013-11-13 08:53:00,43.0,42.0,-100.00,South,169,3.0,-999.0,94,0.00,,,-99.99,,2013-11-13 16:53:00,
2013-11-13 09:00:00,47.0,43.0,-100.00,SSE,166,2.0,-999.0,87,0.00,,,-99.99,,2013-11-13 17:00:00,
2013-11-13 09:42:00,47.0,43.0,-100.00,SSE,166,2.0,-999.0,87,0.00,,,-99.99,,2013-11-13 17:42:00,
2013-11-13 09:52:00,47.0,43.0,-100.00,SSE,166,2.0,-999.0,87,0.00,,,-99.99,,2013-11-13 17:52:00,
2013-11-13 10:00:00,55.0,45.0,-100.00,South,173,3.0,-999.0,70,0.00,,,-99.99,,2013-11-13 18:00:00,
2013-11-13 10:42:00,55.0,45.0,-100.00,South,173,3.0,-999.0,70,0.00,,,-99.99,,2013-11-13 18:42:00,
2013-11-13 10:52:00,55.0,45.0,-100.00,South,173,3.0,-999.0,70,0.00,,,-99.99,,2013-11-13 18:52:00,
2013-11-13 11:00:00,63.0,48.0,-100.00,SE,128,0.0,-999.0,56,0.00,,,-99.99,,2013-11-13 19:00:00,
2013-11-13 11:42:00,63.0,48.0,-100.00,SE,128,0.0,-999.0,56,0.00,,,-99.99,,2013-11-13 19:42:00,
2013-11-13 11:52:00,63.0,48.0,-100.00,SE,128,0.0,-999.0,56,0.00,,,-99.99,,2013-11-13 19:52:00,
2013-11-13 12:00:00,70.0,49.0,-100.00,North,353,2.0,-999.0,47,0.00,,,-99.99,,2013-11-13 20:00:00,
2013-11-13 12:42:00,70.0,49.0,-100.00,North,353,2.0,-999.0,47,0.00,,,-99.99,,2013-11-13 20:42:00,
2013-11-13 12:52:00,70.0,49.0,-100.00,North,353,2.0,-999.0,47,0.00,,,-99.99,,2013-11-13 20:52:00,
2013-11-13 13:00:00,76.0,50.0,-100.00,West,273,1.0,-999.0,40,0.00,,,-99.99,,2013-11-13 21:00:00,
2013-11-13 13:43:00,76.0,50.0,-100.00,West,273,1.0,-999.0,40,0.00,,,-99.99,,2013-11-13 21:43:00,
2013-11-13 13:53:00,76.0,50.0,-100.00,West,273,1.0,-999.0,40,0.00,,,-99.99,,2013-11-13 21:53:00,
2013-11-13 14:00:00,74.0,49.0,-100.00,NNW,329,2.0,-999.0,41,0.00,,,-99.99,,2013-11-13 22:00:00,
2013-11-13 14:42:00,74.0,49.0,-100.00,NNW,329,2.0,-999.0,41,0.00,,,-99.99,,2013-11-13 22:42:00,
2013-11-13 14:53:00,74.0,49.0,-100.00,NNW,329,2.0,-999.0,41,0.00,,,-99.99,,2013-11-13 22:53:00,
2013-11-13 15:00:00,73.0,50.0,-100.00,NW,316,4.0,-999.0,43,0.00,,,-99.99,,2013-11-13 23:00:00,
2013-11-13 15:43:00,73.0,50.0,-100.00,NW,316,4.0,-999.0,43,0.00,,,-99.99,,2013-11-13 23:43:00,
2013-11-13 15:53:00,73.0,50.0,-100.00,NW,316,4.0,-999.0,43,0.00,,,-99.99,,2013-11-13 23:53:00,
2013-11-13 16:00:00,73.0,50.0,-100.00,NW,308,2.0,-999.0,43,0.00,,,-99.99,,2013-11-14 00:00:00,
2013-11-13 16:42:00,73.0,50.0,-100.00,NW,308,2.0,-999.0,43,0.00,,,-99.99,,2013-11-14 00:42:00,
2013-11-13 16:52:00,73.0,50.0,-100.00,NW,308,2.0,-999.0,43,0.00,,,-99.99,,2013-11-14 00:52:00,
2013-11-13 18:00:00,65.0,50.0,-100.00,NNW,333,5.0,-999.0,56,0.00,,,-99.99,,2013-11-14 02:00:00,
2013-11-13 18:53:00,65.0,50.0,-100.00,NNW,333,5.0,-999.0,56,0.00,,,-99.99,,2013-11-14 02:53:00,
2013-11-13 19:00:00,62.0,50.0,-100.00,North,350,4.0,-999.0,64,0.00,,,-99.99,,2013-11-14 03:00:00,
2013-11-13 19:44:00,62.0,50.0,-100.00,North,350,4.0,-999.0,64,0.00,,,-99.99,,2013-11-14 03:44:00,
2013-11-13 19:54:00,62.0,50.0,-100.00,North,350,4.0,-999.0,64,0.00,,,-99.99,,2013-11-14 03:54:00,
2013-11-13 20:00:00,58.0,50.0,-100.00,NNW,347,1.0,-999.0,73,0.00,,,-99.99,,2013-11-14 04:00:00,
2013-11-13 20:43:00,58.0,50.0,-100.00,NNW,347,1.0,-999.0,73,0.00,,,-99.99,,2013-11-14 04:43:00,
2013-11-13 20:54:00,58.0,50.0,-100.00,NNW,347,1.0,-999.0,73,0.00,,,-99.99,,2013-11-14 04:54:00,
2013-11-13 21:00:00,55.0,48.0,-100.00,South,178,4.0,-999.0,76,0.00,,,-99.99,,2013-11-14 05:00:00,
2013-11-13 21:44:00,55.0,48.0,-100.00,South,178,4.0,-999.0,76,0.00,,,-99.99,,2013-11-14 05:44:00,
2013-11-13 21:53:00,55.0,48.0,-100.00,South,178,4.0,-999.0,76,0.00,,,-99.99,,2013-11-14 05:53:00,
2013-11-13 22:00:00,54.0,48.0,-100.00,SSE,156,3.0,-999.0,78,0.00,,,-99.99,,2013-11-14 06:00:00,
2013-11-13 22:42:00,54.0,48.0,-100.00,SSE,156,3.0,-999.0,78,0.00,,,-99.99,,2013-11-14 06:42:00,
2013-11-13 22:52:00,54.0,48.0,-100.00,SSE,156,3.0,-999.0,78,0.00,,,-99.99,,2013-11-14 06:52:00,
2013-11-13 23:00:00,52.0,47.0,-100.00,South,182,3.0,-999.0,82,0.00,,,-99.99,,2013-11-14 07:00:00,
2013-11-13 23:42:00,52.0,47.0,-100.00,South,182,3.0,-999.0,82,0.00,,,-99.99,,2013-11-14 07:42:00,
2013-11-13 23:53:00,52.0,47.0,-100.00,South,182,3.0,-999.0,82,0.00,,,-99.99,,2013-11-14 07:53:00,